Time;durP1;ratioP1;P1;durP2;ratioP2;P2;SDS_P1;SDS_P2;PMS_P1;PMS_P2;Temp;Humidity;BMP_temperature;BMP_pressure;BME280_temperature;BME280_humidity;BME280_pressure;Samples;Min_cycle;Max_cycle;Signal;HPM_P1;HPM_P2
2022/06/17 00:01:30;;;;;;;1.27;0.52;;;14.20;99.90;;;;;;5023091;28;20068;-66
2022/06/17 00:03:58;;;;;;;1.00;0.50;;;14.20;99.90;;;;;;5021723;28;20026;-65
2022/06/17 00:06:33;;;;;;;4.90;0.57;;;14.40;99.90;;;;;;5022005;28;20113;-65
2022/06/17 00:09:01;;;;;;;1.55;0.43;;;14.30;99.90;;;;;;5028672;28;20094;-66
2022/06/17 00:11:37;;;;;;;4.13;0.40;;;14.50;99.90;;;;;;5031422;28;20030;-66
2022/06/17 00:14:15;;;;;;;1.02;0.35;;;14.60;99.90;;;;;;5019448;28;20489;-66
2022/06/17 00:16:43;;;;;;;1.00;0.30;;;14.80;99.90;;;;;;5030085;28;20438;-66
2022/06/17 00:19:10;;;;;;;3.30;0.68;;;14.90;99.90;;;;;;5039592;28;20036;-65
2022/06/17 00:21:43;;;;;;;1.25;0.57;;;15.00;99.90;;;;;;5031937;28;20025;-65
2022/06/17 00:24:26;;;;;;;0.75;0.40;;;14.90;99.90;;;;;;5034335;28;20157;-65
2022/06/17 00:26:54;;;;;;;2.72;0.30;;;15.00;99.90;;;;;;5031737;28;22658;-67
2022/06/17 00:29:26;;;;;;;1.23;0.32;;;15.10;99.90;;;;;;5024702;28;20080;-66
2022/06/17 00:31:53;;;;;;;1.63;0.13;;;15.10;99.90;;;;;;5034779;28;20021;-66
2022/06/17 00:34:20;;;;;;;2.30;0.40;;;15.20;99.90;;;;;;5020976;28;20062;-66
2022/06/17 00:36:48;;;;;;;1.02;0.15;;;15.30;99.90;;;;;;5023703;28;20029;-67
2022/06/17 00:39:23;;;;;;;0.65;0.20;;;15.30;99.90;;;;;;5025004;28;20028;-66
2022/06/17 00:41:54;;;;;;;2.40;0.13;;;15.30;99.90;;;;;;5021166;28;20022;-66
2022/06/17 00:44:27;;;;;;;0.60;0.25;;;15.50;99.90;;;;;;5024047;28;20029;-66
2022/06/17 00:47:03;;;;;;;4.07;0.63;;;15.50;99.90;;;;;;5022246;28;20359;-66
2022/06/17 00:49:38;;;;;;;1.25;0.40;;;15.50;99.90;;;;;;5027737;28;20076;-66
2022/06/17 00:52:06;;;;;;;;;;;15.50;99.90;;;;;;5022817;28;20037;-66
2022/06/17 00:54:55;;;;;;;1.65;0.10;;;15.60;99.90;;;;;;5027104;28;19940;-66
2022/06/17 00:57:29;;;;;;;1.00;0.30;;;15.80;99.90;;;;;;5026571;28;20052;-67
2022/06/17 01:00:13;;;;;;;3.92;0.30;;;15.80;99.90;;;;;;5027875;28;20033;-66
2022/06/17 01:02:48;;;;;;;0.90;0.15;;;15.90;99.90;;;;;;5021841;28;20034;-67
2022/06/17 01:05:18;;;;;;;1.00;0.52;;;15.80;99.90;;;;;;5033218;28;20104;-66
2022/06/17 01:07:54;;;;;;;1.33;0.35;;;16.00;99.90;;;;;;5024023;28;20026;-66
2022/06/17 01:10:22;;;;;;;0.60;0.10;;;16.00;99.90;;;;;;5031717;28;20037;-66
2022/06/17 01:13:16;;;;;;;1.63;0.17;;;15.90;99.90;;;;;;5027629;28;20078;-67
2022/06/17 01:15:44;;;;;;;2.75;0.28;;;16.00;99.90;;;;;;5036288;28;20041;-66
2022/06/17 01:18:13;;;;;;;1.83;0.45;;;16.20;99.90;;;;;;5028416;28;20029;-66
2022/06/17 01:20:42;;;;;;;0.73;0.20;;;16.30;99.90;;;;;;5037646;28;20021;-66
2022/06/17 01:23:14;;;;;;;1.40;0.17;;;16.20;99.90;;;;;;5027866;28;20513;-66
2022/06/17 01:25:47;;;;;;;0.75;0.20;;;16.20;99.90;;;;;;5038277;28;20030;-66
2022/06/17 01:28:18;;;;;;;1.48;0.30;;;16.20;99.90;;;;;;5030950;28;20097;-66
2022/06/17 01:30:58;;;;;;;1.30;0.40;;;16.30;99.90;;;;;;5020991;28;20867;-67
2022/06/17 01:33:29;;;;;;;1.58;0.20;;;16.30;99.90;;;;;;5018673;28;20020;-66
2022/06/17 01:36:15;;;;;;;1.48;0.57;;;16.30;99.90;;;;;;5016374;28;20140;-66
2022/06/17 01:38:46;;;;;;;1.45;0.10;;;16.50;99.90;;;;;;5024270;28;20056;-66
2022/06/17 01:41:14;;;;;;;0.50;0.10;;;16.60;99.90;;;;;;5027912;28;20021;-66
2022/06/17 01:43:52;;;;;;;0.52;0.10;;;16.70;99.90;;;;;;5019990;28;20022;-66
2022/06/17 01:46:32;;;;;;;0.40;0.10;;;16.70;99.90;;;;;;5021973;28;20033;-66
2022/06/17 01:49:18;;;;;;;2.35;0.20;;;16.70;99.90;;;;;;5041474;28;20037;-66
2022/06/17 01:51:50;;;;;;;1.92;0.60;;;17.00;99.90;;;;;;5024367;28;20064;-66
2022/06/17 01:54:47;;;;;;;0.90;0.10;;;17.30;99.90;;;;;;5028068;28;20042;-66
2022/06/17 01:57:23;;;;;;;0.35;0.30;;;17.20;99.90;;;;;;5033826;28;20515;-66
2022/06/17 02:00:00;;;;;;;0.10;0.10;;;17.30;99.90;;;;;;5032486;28;20029;-66
2022/06/17 02:02:30;;;;;;;0.28;0.10;;;17.20;99.90;;;;;;5019860;28;20466;-66
2022/06/17 02:05:03;;;;;;;0.43;0.10;;;17.30;99.90;;;;;;5022244;28;20026;-66
2022/06/17 02:07:54;;;;;;;2.22;0.10;;;17.50;99.90;;;;;;5020794;28;20033;-66
2022/06/17 02:10:23;;;;;;;0.45;0.10;;;17.70;99.90;;;;;;5023549;28;20037;-66
2022/06/17 02:12:52;;;;;;;0.95;0.30;;;17.90;99.90;;;;;;5030202;28;20026;-66
2022/06/17 02:15:19;;;;;;;2.10;0.15;;;17.90;99.90;;;;;;5032041;28;20038;-66
2022/06/17 02:17:50;;;;;;;0.75;0.10;;;17.80;99.90;;;;;;5038422;28;20079;-66
2022/06/17 02:20:18;;;;;;;6.85;0.57;;;18.10;99.90;;;;;;5032357;28;20021;-66
2022/06/17 02:22:47;;;;;;;1.73;0.30;;;18.30;99.90;;;;;;5026224;28;20034;-66
2022/06/17 02:25:19;;;;;;;0.70;0.30;;;18.30;99.90;;;;;;5021704;28;20029;-65
2022/06/17 02:27:51;;;;;;;0.30;0.20;;;18.70;99.90;;;;;;5031498;28;20029;-65
2022/06/17 02:30:19;;;;;;;0.25;0.10;;;18.40;99.90;;;;;;5029058;28;20042;-65
2022/06/17 02:32:48;;;;;;;0.20;0.08;;;18.30;99.90;;;;;;5019088;28;20492;-65
2022/06/17 02:35:37;;;;;;;0.63;0.13;;;18.90;99.90;;;;;;5027466;28;20042;-66
2022/06/17 02:38:06;;;;;;;1.30;0.10;;;18.70;99.90;;;;;;5026528;28;20551;-65
2022/06/17 02:40:42;;;;;;;0.20;0.10;;;19.30;99.90;;;;;;5023588;28;20032;-65
2022/06/17 02:43:22;;;;;;;4.88;0.75;;;19.90;99.90;;;;;;5021524;28;20037;-65
2022/06/17 02:46:09;;;;;;;0.30;0.10;;;19.30;99.90;;;;;;5029071;28;20018;-65
2022/06/17 02:48:53;;;;;;;0.32;0.10;;;18.40;99.90;;;;;;5020863;28;20481;-65
2022/06/17 02:51:21;;;;;;;0.68;0.10;;;18.10;99.90;;;;;;5023496;28;20041;-65
2022/06/17 02:53:49;;;;;;;0.15;0.10;;;18.00;99.90;;;;;;5023549;28;20045;-65
2022/06/17 02:56:20;;;;;;;0.50;0.10;;;17.80;99.90;;;;;;5024563;28;20034;-65
2022/06/17 02:59:23;;;;;;;1.75;0.32;;;17.70;99.90;;;;;;5022647;28;20057;-65
2022/06/17 03:01:54;;;;;;;0.68;0.10;;;17.80;99.90;;;;;;5022940;28;20034;-65
2022/06/17 03:04:28;;;;;;;1.42;0.80;;;18.20;99.90;;;;;;5016796;28;20544;-65
2022/06/17 03:06:56;;;;;;;4.20;0.57;;;18.00;99.90;;;;;;5023972;28;20026;-65
2022/06/17 03:09:29;;;;;;;2.25;0.52;;;17.70;99.90;;;;;;5023766;28;20037;-65
2022/06/17 03:12:10;;;;;;;1.13;0.30;;;17.50;99.90;;;;;;5026495;28;20021;-65
2022/06/17 03:15:08;;;;;;;1.05;0.30;;;17.90;99.90;;;;;;5031278;28;20033;-65
2022/06/17 03:17:43;;;;;;;3.72;0.70;;;18.00;99.90;;;;;;5026309;28;20041;-65
2022/06/17 03:20:36;;;;;;;2.00;0.40;;;17.90;99.90;;;;;;5023053;28;20022;-66
2022/06/17 03:23:13;;;;;;;3.97;0.70;;;17.70;99.90;;;;;;5021636;28;20036;-65
2022/06/17 03:26:02;;;;;;;4.93;1.10;;;17.50;99.90;;;;;;5037315;28;20029;-66
2022/06/17 03:28:43;;;;;;;4.85;0.80;;;17.50;99.90;;;;;;5034017;28;20491;-65
2022/06/17 03:31:24;;;;;;;0.82;0.40;;;17.50;99.90;;;;;;5034375;28;20108;-66
2022/06/17 03:33:57;;;;;;;2.85;0.55;;;17.40;99.90;;;;;;5028032;28;20029;-66
2022/06/17 03:36:49;;;;;;;1.98;0.50;;;17.80;99.90;;;;;;5026341;28;20022;-65
2022/06/17 03:39:26;;;;;;;6.15;0.85;;;17.90;99.90;;;;;;5049037;28;20374;-67
2022/06/17 03:42:11;;;;;;;2.55;0.50;;;18.10;99.90;;;;;;5024303;28;20415;-65
2022/06/17 03:45:05;;;;;;;3.28;0.90;;;17.60;99.90;;;;;;5025159;28;20033;-67
2022/06/17 03:47:47;;;;;;;4.28;0.90;;;17.50;99.90;;;;;;5023198;28;20395;-66
2022/06/17 03:50:26;;;;;;;4.93;0.80;;;17.40;99.90;;;;;;5026479;28;20025;-66
2022/06/17 03:53:01;;;;;;;3.88;1.10;;;17.30;99.90;;;;;;5025949;28;20394;-66
2022/06/17 03:55:29;;;;;;;3.88;1.00;;;17.30;99.90;;;;;;5022129;28;20041;-66
2022/06/17 03:58:00;;;;;;;3.40;0.60;;;17.40;99.90;;;;;;5026127;28;20371;-66
2022/06/17 04:00:46;;;;;;;4.88;0.98;;;17.30;99.90;;;;;;5036279;28;20028;-65
2022/06/17 04:03:18;;;;;;;5.85;1.08;;;17.30;99.90;;;;;;5025997;28;20025;-66
2022/06/17 04:05:51;;;;;;;5.15;0.90;;;17.50;99.90;;;;;;5020826;28;20135;-66
2022/06/17 04:08:18;;;;;;;3.92;0.80;;;17.50;99.90;;;;;;5025774;28;20021;-66
2022/06/17 04:10:46;;;;;;;6.40;0.65;;;17.50;99.90;;;;;;5028281;28;20528;-65
2022/06/17 04:13:19;;;;;;;8.80;0.82;;;17.40;99.90;;;;;;5028743;28;20035;-66
2022/06/17 04:15:49;;;;;;;5.50;0.80;;;17.20;99.90;;;;;;5019845;28;20048;-66
2022/06/17 04:18:16;;;;;;;10.88;1.23;;;17.00;99.90;;;;;;5016445;28;20041;-65
2022/06/17 04:20:55;;;;;;;6.03;3.22;;;16.90;99.90;;;;;;5026943;28;20115;-65
2022/06/17 04:23:28;;;;;;;3.25;1.10;;;16.80;99.90;;;;;;5021058;28;20025;-65
2022/06/17 04:26:05;;;;;;;11.20;1.35;;;16.70;99.90;;;;;;5020738;28;20045;-65
2022/06/17 04:28:48;;;;;;;6.22;1.55;;;16.70;99.90;;;;;;5027391;28;20021;-65
2022/06/17 04:31:23;;;;;;;3.55;0.70;;;16.70;99.90;;;;;;5021774;28;20039;-66
2022/06/17 04:33:54;;;;;;;;;;;16.60;99.90;;;;;;5025814;28;20579;-66
2022/06/17 04:36:21;;;;;;;7.60;0.88;;;16.60;99.90;;;;;;5030963;28;19937;-66
2022/06/17 04:39:21;;;;;;;6.05;1.17;;;16.60;99.90;;;;;;5022486;28;20028;-65
2022/06/17 04:41:52;;;;;;;12.40;1.60;;;16.60;99.90;;;;;;5013937;28;20026;-66
2022/06/17 04:44:20;;;;;;;9.02;2.25;;;16.60;99.90;;;;;;5012737;28;20119;-66
2022/06/17 04:46:55;;;;;;;7.65;0.95;;;16.60;99.90;;;;;;5017943;28;20032;-65
2022/06/17 04:49:26;;;;;;;11.77;1.67;;;16.60;99.90;;;;;;5035336;28;20036;-65
2022/06/17 04:52:12;;;;;;;8.55;1.08;;;16.70;99.90;;;;;;5023998;28;20030;-66
2022/06/17 04:54:40;;;;;;;4.68;1.10;;;16.90;99.90;;;;;;5019760;28;20556;-65
2022/06/17 04:57:10;;;;;;;2.00;0.60;;;17.00;99.90;;;;;;5012074;28;20022;-65
2022/06/17 04:59:44;;;;;;;6.25;1.60;;;17.00;99.90;;;;;;5012245;28;20029;-66
2022/06/17 05:02:23;;;;;;;;;;;16.90;99.90;;;;;;5025175;28;20118;-66
2022/06/17 05:04:54;;;;;;;15.20;2.65;;;16.90;99.90;;;;;;5031987;28;19921;-66
2022/06/17 05:07:21;;;;;;;6.28;1.50;;;16.80;99.90;;;;;;5015254;28;20029;-66
2022/06/17 05:10:13;;;;;;;9.98;1.88;;;16.70;99.90;;;;;;5012739;28;20080;-66
2022/06/17 05:12:58;;;;;;;5.25;0.80;;;16.60;99.90;;;;;;5012912;28;20052;-66
2022/06/17 05:15:26;;;;;;;7.75;1.20;;;16.50;99.90;;;;;;5012085;28;20108;-65
2022/06/17 05:17:55;;;;;;;4.60;1.30;;;16.50;99.90;;;;;;5013218;28;20018;-66
2022/06/17 05:20:24;;;;;;;3.22;0.80;;;16.50;99.90;;;;;;5012760;28;20482;-65
2022/06/17 05:23:02;;;;;;;3.78;0.77;;;16.50;99.90;;;;;;5030734;28;20034;-66
2022/06/17 05:25:36;;;;;;;3.72;0.57;;;16.40;99.90;;;;;;5029638;28;20038;-65
2022/06/17 05:28:07;;;;;;;3.85;0.75;;;16.40;99.90;;;;;;4995708;28;20479;-66
2022/06/17 05:30:38;;;;;;;2.13;0.77;;;16.40;99.90;;;;;;5015571;28;20039;-65
2022/06/17 05:33:06;;;;;;;2.83;0.70;;;16.40;99.90;;;;;;5017371;28;20022;-66
2022/06/17 05:35:33;;;;;;;4.43;0.77;;;16.40;99.90;;;;;;5015383;28;20029;-66
2022/06/17 05:38:00;;;;;;;4.13;0.70;;;16.40;99.90;;;;;;5016693;28;20022;-65
2022/06/17 05:40:28;;;;;;;3.80;0.77;;;16.40;99.90;;;;;;5016088;28;20030;-66
2022/06/17 05:42:55;;;;;;;2.60;0.60;;;16.50;99.90;;;;;;5021753;28;20029;-66
2022/06/17 05:45:26;;;;;;;1.38;0.40;;;16.50;99.90;;;;;;5036388;28;20068;-65
2022/06/17 05:47:53;;;;;;;4.32;0.70;;;16.50;99.90;;;;;;5035693;28;20025;-65
2022/06/17 05:50:22;;;;;;;6.93;1.65;;;16.50;99.90;;;;;;5036130;28;20039;-65
2022/06/17 05:53:01;;;;;;;3.17;0.60;;;16.50;99.90;;;;;;5017175;28;20454;-66
2022/06/17 05:55:31;;;;;;;7.05;1.08;;;16.50;99.90;;;;;;5016326;28;20038;-65
2022/06/17 05:57:59;;;;;;;8.10;0.80;;;16.40;99.90;;;;;;5031109;28;20064;-66
2022/06/17 06:00:27;;;;;;;4.10;0.95;;;16.40;99.90;;;;;;5027307;28;20503;-65
2022/06/17 06:03:00;;;;;;;4.57;1.10;;;16.40;99.90;;;;;;5025933;28;20025;-66
2022/06/17 06:05:31;;;;;;;3.63;0.93;;;16.40;99.90;;;;;;5015250;28;20044;-65
2022/06/17 06:07:59;;;;;;;2.47;0.65;;;16.30;99.90;;;;;;5035262;28;20021;-66
2022/06/17 06:10:27;;;;;;;10.35;1.45;;;16.20;99.90;;;;;;5034803;28;20573;-65
2022/06/17 06:12:57;;;;;;;7.22;1.48;;;16.20;99.90;;;;;;5016378;28;20022;-65
2022/06/17 06:15:35;;;;;;;4.72;1.40;;;16.10;99.90;;;;;;5016118;28;20029;-65
2022/06/17 06:18:03;;;;;;;4.57;1.88;;;16.10;99.90;;;;;;5017075;28;20026;-66
2022/06/17 06:20:30;;;;;;;5.38;1.83;;;16.00;99.90;;;;;;5014156;28;20124;-66
2022/06/17 06:22:58;;;;;;;4.10;1.33;;;16.00;99.90;;;;;;5030811;28;20033;-65
2022/06/17 06:25:25;;;;;;;4.47;0.93;;;15.90;99.90;;;;;;5014544;28;20054;-65
2022/06/17 06:27:52;;;;;;;4.80;1.10;;;16.00;99.90;;;;;;5016369;28;20548;-66
2022/06/17 06:30:31;;;;;;;7.95;1.65;;;15.90;99.90;;;;;;5015227;28;20028;-66
2022/06/17 06:33:00;;;;;;;7.75;1.20;;;15.90;99.90;;;;;;5014854;28;20573;-65
2022/06/17 06:35:31;;;;;;;7.88;1.98;;;15.80;99.90;;;;;;5028107;28;20071;-66
2022/06/17 06:37:59;;;;;;;3.72;1.00;;;15.80;99.90;;;;;;5030984;28;20029;-67
2022/06/17 06:40:28;;;;;;;5.65;1.10;;;15.90;99.90;;;;;;5031058;28;20626;-66
2022/06/17 06:42:56;;;;;;;8.05;1.63;;;15.80;99.90;;;;;;5032721;28;20497;-66
2022/06/17 06:45:35;;;;;;;3.22;1.13;;;15.80;99.90;;;;;;5055795;28;20442;-66
2022/06/17 06:48:05;;;;;;;7.32;1.17;;;15.90;99.90;;;;;;5051013;28;20034;-66
2022/06/17 06:50:34;;;;;;;6.18;0.88;;;15.70;99.90;;;;;;5058904;28;20033;-66
2022/06/17 06:53:02;;;;;;;4.15;1.25;;;15.70;99.90;;;;;;5053159;28;20029;-66
2022/06/17 06:55:29;;;;;;;5.00;0.88;;;15.70;99.90;;;;;;5051245;28;20117;-66
2022/06/17 06:58:00;;;;;;;4.93;0.82;;;15.70;99.90;;;;;;5033340;28;20521;-66
2022/06/17 07:00:34;;;;;;;6.68;1.15;;;15.70;99.90;;;;;;5038165;28;20026;-66
2022/06/17 07:03:02;;;;;;;6.70;0.95;;;15.70;99.90;;;;;;5037552;28;20026;-66
2022/06/17 07:05:30;;;;;;;5.90;1.27;;;15.70;99.90;;;;;;5047611;28;20041;-67
2022/06/17 07:07:58;;;;;;;8.85;1.23;;;15.70;99.90;;;;;;5039353;28;20065;-67
2022/06/17 07:10:30;;;;;;;4.40;0.60;;;15.70;99.90;;;;;;5039619;28;20036;-67
2022/06/17 07:12:57;;;;;;;4.25;0.80;;;15.60;99.90;;;;;;5029614;28;20541;-66
2022/06/17 07:15:25;;;;;;;4.60;0.80;;;15.50;99.90;;;;;;5034626;28;20025;-67
2022/06/17 07:17:59;;;;;;;5.43;0.95;;;15.60;99.90;;;;;;5023362;28;20026;-67
2022/06/17 07:20:31;;;;;;;7.67;0.90;;;15.60;99.90;;;;;;5020779;28;20061;-67
2022/06/17 07:22:58;;;;;;;2.88;0.65;;;15.50;99.90;;;;;;5035734;28;20044;-67
2022/06/17 07:25:26;;;;;;;3.88;1.25;;;15.50;99.90;;;;;;5023415;28;20021;-67
2022/06/17 07:27:53;;;;;;;1.65;0.68;;;15.50;99.90;;;;;;5033987;28;20119;-67
2022/06/17 07:30:21;;;;;;;6.70;1.10;;;15.40;99.90;;;;;;5034653;28;20034;-67
2022/06/17 07:32:49;;;;;;;4.63;0.98;;;15.40;99.90;;;;;;5023089;28;20103;-67
2022/06/17 07:35:17;;;;;;;7.00;0.90;;;15.40;99.90;;;;;;5020556;28;20118;-67
2022/06/17 07:40:30;;;;;;;4.22;0.75;;;15.40;99.90;;;;;;5037305;28;20095;-67
2022/06/17 07:42:58;;;;;;;2.33;0.95;;;15.40;99.90;;;;;;5026063;28;20030;-67
2022/06/17 07:45:27;;;;;;;2.97;0.82;;;15.40;99.90;;;;;;5018450;28;20120;-68
2022/06/17 07:47:56;;;;;;;3.95;0.68;;;15.40;99.90;;;;;;5028606;28;20108;-67
2022/06/17 07:50:30;;;;;;;4.22;1.08;;;15.40;99.90;;;;;;5031879;28;20482;-67
2022/06/17 07:52:58;;;;;;;3.97;0.95;;;15.50;99.90;;;;;;5032418;28;20398;-67
2022/06/17 07:55:25;;;;;;;2.75;1.15;;;15.50;99.90;;;;;;5029280;28;20045;-67
2022/06/17 07:57:53;;;;;;;2.88;1.00;;;15.50;99.90;;;;;;5025505;28;20017;-68
2022/06/17 08:00:25;;;;;;;3.67;0.73;;;15.50;99.90;;;;;;5031561;28;20036;-67
2022/06/17 08:02:52;;;;;;;2.35;0.70;;;15.50;99.90;;;;;;5025881;28;20092;-67
2022/06/17 08:05:21;;;;;;;3.00;0.77;;;15.50;99.90;;;;;;5027022;28;20493;-67
2022/06/17 08:07:53;;;;;;;6.70;0.95;;;15.50;99.90;;;;;;5022087;28;20440;-67
2022/06/17 08:10:25;;;;;;;3.15;0.45;;;15.50;99.90;;;;;;5040220;28;20113;-67
2022/06/17 08:12:53;;;;;;;2.70;0.68;;;15.50;99.90;;;;;;5034582;28;20037;-68
2022/06/17 08:15:21;;;;;;;2.30;0.75;;;15.50;99.90;;;;;;5031600;28;20449;-68
2022/06/17 08:17:49;;;;;;;3.75;0.90;;;15.50;99.90;;;;;;5030124;28;20415;-67
2022/06/17 08:20:20;;;;;;;3.00;0.77;;;15.50;99.90;;;;;;5014541;28;20041;-67
2022/06/17 08:22:48;;;;;;;2.58;1.02;;;15.50;99.90;;;;;;5025511;28;20064;-67
2022/06/17 08:25:16;;;;;;;4.25;1.45;;;15.50;99.90;;;;;;5035828;28;20112;-67
2022/06/17 08:27:49;;;;;;;3.00;0.77;;;15.50;99.90;;;;;;5030755;28;20052;-68
2022/06/17 08:30:19;;;;;;;2.30;0.63;;;15.50;99.90;;;;;;5028324;28;20509;-68
2022/06/17 08:32:48;;;;;;;3.58;0.80;;;15.50;99.90;;;;;;5031382;28;20017;-68
2022/06/17 08:35:20;;;;;;;3.00;1.02;;;15.50;99.90;;;;;;5035909;28;20025;-68
2022/06/17 08:37:49;;;;;;;1.48;0.77;;;15.50;99.90;;;;;;5020265;28;20844;-68
2022/06/17 08:40:25;;;;;;;1.77;0.60;;;15.40;99.90;;;;;;5020336;28;20489;-67
2022/06/17 08:42:52;;;;;;;1.75;0.93;;;15.40;99.90;;;;;;5020319;28;20057;-67
2022/06/17 08:45:54;;;;;;;1.58;0.70;;;15.50;99.90;;;;;;5032922;28;20037;-67
2022/06/17 08:49:09;;;;;;;2.22;0.90;;;15.50;99.90;;;;;;5033763;28;21802;-67
2022/06/17 08:52:07;;;;;;;2.33;0.95;;;15.50;99.90;;;;;;5023048;28;20389;-67
2022/06/17 08:54:57;;;;;;;6.65;3.55;;;15.40;99.90;;;;;;5032977;28;20060;-67
2022/06/17 08:57:38;;;;;;;6.32;3.80;;;15.40;99.90;;;;;;5029867;28;20029;-68
2022/06/17 09:00:33;;;;;;;3.70;1.85;;;15.50;99.90;;;;;;5026157;28;20144;-67
2022/06/17 09:03:26;;;;;;;3.40;1.52;;;15.40;99.90;;;;;;5039321;28;20110;-68
2022/06/17 09:06:38;;;;;;;2.72;1.27;;;15.40;99.90;;;;;;5026751;28;20041;-67
2022/06/17 09:09:23;;;;;;;4.57;1.50;;;15.40;99.90;;;;;;5034423;28;20150;-66
2022/06/17 09:12:16;;;;;;;3.05;1.23;;;15.30;99.90;;;;;;5026036;28;20101;-67
2022/06/17 09:15:20;;;;;;;3.83;1.58;;;15.30;99.90;;;;;;5027784;28;20048;-66
2022/06/17 09:17:57;;;;;;;4.20;1.70;;;15.20;99.90;;;;;;5032254;28;20048;-67
2022/06/17 09:20:31;;;;;;;3.25;1.40;;;15.20;99.90;;;;;;5048326;28;20029;-66
2022/06/17 09:23:03;;;;;;;5.30;2.08;;;15.20;99.90;;;;;;5035540;28;20105;-67
2022/06/17 09:25:44;;;;;;;4.15;1.65;;;15.20;99.90;;;;;;5033691;28;20029;-66
2022/06/17 09:28:22;;;;;;;3.53;1.85;;;15.10;99.90;;;;;;5033673;28;20513;-67
2022/06/17 09:31:04;;;;;;;3.05;1.70;;;15.10;99.90;;;;;;5028623;28;20071;-66
2022/06/17 09:34:02;;;;;;;4.60;1.92;;;15.10;99.90;;;;;;5022468;28;20508;-65
2022/06/17 09:37:02;;;;;;;3.25;1.95;;;15.10;99.90;;;;;;5024221;28;20041;-66
2022/06/17 09:39:41;;;;;;;3.55;1.67;;;15.10;99.90;;;;;;5043475;28;20052;-66
2022/06/17 09:42:24;;;;;;;5.03;2.03;;;15.00;99.90;;;;;;5032435;28;20033;-66
2022/06/17 09:45:16;;;;;;;3.95;1.88;;;15.00;99.90;;;;;;5043291;28;20025;-66
2022/06/17 09:47:51;;;;;;;3.05;1.85;;;15.00;99.90;;;;;;5039347;28;20054;-66
2022/06/17 09:50:53;;;;;;;5.60;2.13;;;14.90;99.90;;;;;;5028827;28;20045;-66
2022/06/17 09:53:42;;;;;;;4.68;1.95;;;14.80;99.90;;;;;;5042840;28;20041;-67
2022/06/17 09:56:52;;;;;;;4.78;2.17;;;14.80;99.90;;;;;;5022615;28;20049;-66
2022/06/17 09:59:23;;;;;;;5.13;1.85;;;14.70;99.90;;;;;;5026689;28;20042;-66
2022/06/17 10:01:53;;;;;;;3.70;1.90;;;14.60;99.90;;;;;;5041743;28;20017;-66
2022/06/17 10:04:20;;;;;;;5.50;1.90;;;14.60;99.90;;;;;;5037933;28;20020;-66
2022/06/17 10:07:07;;;;;;;4.20;1.85;;;14.50;99.90;;;;;;5038997;28;20104;-67
2022/06/17 10:09:48;;;;;;;3.30;1.45;;;14.50;99.90;;;;;;5035581;28;20068;-66
2022/06/17 10:12:51;;;;;;;3.13;1.75;;;14.50;99.90;;;;;;5024011;28;20022;-66
2022/06/17 10:15:38;;;;;;;4.43;1.80;;;14.30;99.90;;;;;;5020770;28;20410;-67
2022/06/17 10:18:32;;;;;;;4.97;1.30;;;14.40;99.90;;;;;;5019129;28;20045;-67
2022/06/17 10:21:08;;;;;;;4.35;1.50;;;14.40;99.90;;;;;;5024053;28;20036;-66
2022/06/17 10:23:59;;;;;;;2.53;1.02;;;14.40;99.90;;;;;;5041283;28;20032;-66
2022/06/17 10:26:45;;;;;;;4.25;1.50;;;14.40;99.90;;;;;;5034157;28;20446;-66
2022/06/17 10:29:48;;;;;;;4.20;1.00;;;14.40;99.90;;;;;;5027466;28;20042;-66
2022/06/17 10:32:15;;;;;;;6.70;1.50;;;14.40;99.90;;;;;;5040845;28;20025;-66
2022/06/17 10:34:53;;;;;;;3.78;1.40;;;14.30;99.90;;;;;;5028020;28;20390;-67
2022/06/17 10:37:21;;;;;;;4.38;1.45;;;14.30;99.90;;;;;;5023672;28;20029;-67
2022/06/17 10:39:49;;;;;;;6.72;1.35;;;14.20;99.90;;;;;;5041417;28;20037;-67
2022/06/17 10:42:20;;;;;;;7.32;1.48;;;14.30;99.90;;;;;;5049355;28;20473;-67
2022/06/17 10:45:03;;;;;;;4.07;1.15;;;14.20;99.90;;;;;;5048917;28;20385;-68
2022/06/17 10:48:09;;;;;;;5.93;1.33;;;14.20;99.90;;;;;;5038376;28;20430;-67
2022/06/17 10:50:35;;;;;;;;;;;14.10;99.90;;;;;;5022385;28;20432;-67
2022/06/17 10:53:28;;;;;;;3.05;1.13;;;14.10;99.90;;;;;;5038859;28;19995;-67
2022/06/17 10:56:06;;;;;;;3.70;1.52;;;14.10;99.90;;;;;;5021687;28;20069;-67
2022/06/17 10:58:34;;;;;;;4.35;1.30;;;14.10;99.90;;;;;;5026224;28;20554;-67
2022/06/17 11:01:02;;;;;;;2.17;0.70;;;14.00;99.90;;;;;;5030217;28;20559;-67
2022/06/17 11:03:35;;;;;;;2.70;0.88;;;14.10;99.90;;;;;;5026531;28;20029;-67
2022/06/17 11:06:12;;;;;;;2.35;1.10;;;14.00;99.90;;;;;;5038963;28;20056;-67
2022/06/17 11:09:02;;;;;;;2.72;0.88;;;14.00;99.90;;;;;;5040313;28;20013;-67
2022/06/17 11:12:03;;;;;;;7.35;1.75;;;13.90;99.90;;;;;;5030875;28;20030;-68
2022/06/17 11:14:39;;;;;;;3.42;0.90;;;14.00;99.90;;;;;;5035306;28;20021;-67
2022/06/17 11:17:20;;;;;;;2.75;0.80;;;13.80;99.90;;;;;;5043048;28;20021;-67
2022/06/17 11:19:54;;;;;;;2.72;1.15;;;13.70;99.90;;;;;;5033903;28;20080;-67
2022/06/17 11:22:40;;;;;;;6.20;1.50;;;13.70;99.90;;;;;;5035487;28;20166;-67
2022/06/17 11:25:20;;;;;;;5.65;1.15;;;13.60;99.90;;;;;;5037236;28;20044;-67
2022/06/17 11:28:13;;;;;;;3.92;1.02;;;13.50;99.90;;;;;;5034342;28;20017;-67
2022/06/17 11:31:02;;;;;;;2.53;0.93;;;13.40;99.90;;;;;;5013256;28;20128;-67
2022/06/17 11:33:41;;;;;;;1.73;0.90;;;13.30;99.90;;;;;;5019727;28;20017;-67
2022/06/17 11:36:19;;;;;;;4.03;1.30;;;13.30;99.90;;;;;;5032795;28;20052;-67
2022/06/17 11:38:47;;;;;;;2.25;1.23;;;13.30;99.90;;;;;;5032142;28;20393;-68
2022/06/17 11:41:43;;;;;;;2.85;0.80;;;13.30;99.90;;;;;;5030866;28;20108;-67
2022/06/17 11:44:19;;;;;;;2.75;0.85;;;13.20;99.90;;;;;;5026776;28;20036;-66
2022/06/17 11:47:01;;;;;;;3.25;1.17;;;13.20;99.90;;;;;;5031001;28;20425;-67
2022/06/17 11:49:34;;;;;;;2.08;0.90;;;13.20;99.90;;;;;;5021939;28;20049;-66
2022/06/17 11:52:22;;;;;;;2.72;1.30;;;13.30;99.90;;;;;;5031032;28;20060;-67
2022/06/17 11:54:52;;;;;;;4.32;1.10;;;13.30;99.90;;;;;;5023282;28;20444;-67
2022/06/17 11:57:30;;;;;;;2.28;0.75;;;13.20;99.90;;;;;;5025650;28;20029;-66
2022/06/17 12:00:00;;;;;;;5.30;1.23;;;13.30;99.90;;;;;;5025313;28;20032;-66
2022/06/17 12:02:28;;;;;;;4.40;1.38;;;13.20;99.90;;;;;;5029176;28;20030;-66
2022/06/17 12:05:10;;;;;;;5.68;1.10;;;13.10;99.90;;;;;;5033175;28;20033;-67
2022/06/17 12:07:55;;;;;;;1.90;1.08;;;13.10;99.90;;;;;;5021811;28;20097;-67
2022/06/17 12:10:49;;;;;;;1.77;1.02;;;13.00;99.90;;;;;;5023859;28;20060;-66
2022/06/17 12:13:34;;;;;;;5.95;1.10;;;13.00;99.90;;;;;;5025677;28;20022;-66
2022/06/17 12:16:16;;;;;;;4.00;1.17;;;12.90;99.90;;;;;;5025743;28;20477;-66
2022/06/17 12:18:47;;;;;;;1.30;0.82;;;12.90;99.90;;;;;;5025287;28;20053;-67
2022/06/17 12:21:33;;;;;;;2.70;1.10;;;12.90;99.90;;;;;;5032988;28;20125;-67
2022/06/17 12:24:09;;;;;;;2.60;1.00;;;12.90;99.90;;;;;;5040201;28;20167;-67
2022/06/17 12:26:40;;;;;;;3.88;1.25;;;12.90;99.90;;;;;;5040490;28;20076;-66
2022/06/17 12:29:14;;;;;;;1.63;0.82;;;12.90;99.90;;;;;;5033569;28;20026;-67
2022/06/17 12:31:55;;;;;;;4.30;1.17;;;12.80;99.90;;;;;;5031541;28;20033;-66
2022/06/17 12:34:25;;;;;;;4.03;1.55;;;12.80;99.90;;;;;;5031281;28;20049;-67
2022/06/17 12:37:00;;;;;;;3.00;1.15;;;12.80;99.90;;;;;;5027359;28;20025;-66
2022/06/17 12:39:48;;;;;;;2.88;1.42;;;12.80;99.90;;;;;;5043582;28;20083;-66
2022/06/17 12:42:30;;;;;;;2.65;1.20;;;12.80;99.90;;;;;;5025880;28;20617;-67
2022/06/17 12:45:12;;;;;;;4.78;1.60;;;12.80;99.90;;;;;;5028456;28;20029;-66
2022/06/17 12:48:07;;;;;;;4.53;1.52;;;12.70;99.90;;;;;;5032137;28;20390;-66
2022/06/17 12:54:13;;;;;;;6.53;1.92;;;12.70;99.90;;;;;;5037610;28;20125;-67
2022/06/17 12:57:31;;;;;;;3.10;1.15;;;12.60;99.90;;;;;;5027333;28;20499;-66
2022/06/17 13:00:10;;;;;;;2.63;1.20;;;12.60;99.90;;;;;;5054883;28;20591;-66
2022/06/17 13:02:55;;;;;;;3.25;1.42;;;12.60;99.90;;;;;;5040375;28;20071;-67
2022/06/17 13:05:49;;;;;;;3.53;1.05;;;12.60;99.90;;;;;;5037165;28;20494;-67
2022/06/17 13:08:44;;;;;;;3.08;1.08;;;12.70;99.90;;;;;;5032087;28;20441;-67
2022/06/17 13:11:33;;;;;;;6.22;1.40;;;12.80;99.90;;;;;;5030552;28;20072;-67
2022/06/17 13:14:12;;;;;;;4.45;1.00;;;12.70;99.90;;;;;;5026912;28;20034;-67
2022/06/17 13:17:11;;;;;;;6.68;1.10;;;12.70;99.90;;;;;;5030584;28;20398;-67
2022/06/17 13:20:04;;;;;;;3.33;1.10;;;12.70;99.90;;;;;;5026453;28;20025;-66
2022/06/17 13:22:58;;;;;;;9.35;1.45;;;12.70;99.90;;;;;;5028652;28;20377;-66
2022/06/17 13:25:26;;;;;;;3.75;0.95;;;12.60;99.90;;;;;;5019676;28;20055;-66
2022/06/17 13:28:09;;;;;;;3.25;1.42;;;12.60;99.90;;;;;;5033889;28;20504;-66
2022/06/17 13:30:55;;;;;;;5.00;1.58;;;12.60;99.90;;;;;;5024459;28;20613;-66
2022/06/17 13:33:29;;;;;;;4.32;1.10;;;12.50;99.90;;;;;;5034956;28;20025;-66
2022/06/17 13:36:16;;;;;;;6.18;1.75;;;12.60;99.90;;;;;;5029412;28;20383;-66
2022/06/17 13:38:57;;;;;;;3.13;1.38;;;12.60;99.90;;;;;;5029777;28;20443;-66
2022/06/17 13:41:34;;;;;;;5.47;1.38;;;12.60;99.90;;;;;;5034827;28;20027;-66
2022/06/17 13:44:28;;;;;;;6.88;1.35;;;12.60;99.90;;;;;;5024678;28;20022;-66